Time;durP1;ratioP1;P1;durP2;ratioP2;P2;SDS_P1;SDS_P2;PMS_P1;PMS_P2;Temp;Humidity;BMP_temperature;BMP_pressure;BME280_temperature;BME280_humidity;BME280_pressure;Samples;Min_cycle;Max_cycle;Signal;HPM_P1;HPM_P2
2021/09/03 00:01:54;;;;;;;10.07;4.65;;;12.60;88.90;;;;;;6312253;22;20015;-75
2021/09/03 00:04:21;;;;;;;8.77;4.18;;;12.60;89.00;;;;;;6316424;22;20087;-76
2021/09/03 00:06:49;;;;;;;11.55;4.28;;;12.60;89.00;;;;;;6316418;22;20019;-76
2021/09/03 00:09:18;;;;;;;9.32;3.58;;;12.60;89.10;;;;;;6316749;22;20015;-76
2021/09/03 00:11:52;;;;;;;10.10;4.03;;;12.60;89.00;;;;;;6314427;22;20240;-76
2021/09/03 00:14:19;;;;;;;13.35;4.90;;;12.60;89.10;;;;;;6288473;22;20045;-76
2021/09/03 00:16:47;;;;;;;8.52;3.47;;;12.60;89.20;;;;;;6315603;22;20105;-76
2021/09/03 00:19:14;;;;;;;9.35;3.80;;;12.60;89.00;;;;;;6315389;22;20023;-76
2021/09/03 00:21:41;;;;;;;12.60;3.92;;;12.60;88.90;;;;;;6286736;22;20032;-76
2021/09/03 00:24:09;;;;;;;11.18;4.18;;;12.50;89.10;;;;;;6314421;22;20030;-76
2021/09/03 00:26:38;;;;;;;7.38;3.65;;;12.40;89.10;;;;;;6314230;22;20019;-76
2021/09/03 00:29:05;;;;;;;9.15;4.43;;;12.40;89.20;;;;;;6314706;22;20080;-76
2021/09/03 00:31:35;;;;;;;7.82;3.80;;;12.30;89.30;;;;;;6314359;22;20464;-75
2021/09/03 00:34:02;;;;;;;10.07;4.43;;;12.30;89.50;;;;;;6314382;22;20023;-76
2021/09/03 00:36:32;;;;;;;10.68;3.53;;;12.20;89.50;;;;;;6312652;22;20027;-76
2021/09/03 00:39:03;;;;;;;7.97;3.72;;;12.20;89.60;;;;;;6313715;22;20200;-76
2021/09/03 00:41:33;;;;;;;11.63;3.70;;;12.20;89.70;;;;;;6286536;22;20069;-76
2021/09/03 00:44:05;;;;;;;9.23;4.38;;;12.20;89.70;;;;;;6313829;22;20053;-76
2021/09/03 00:46:32;;;;;;;8.57;3.97;;;12.20;89.80;;;;;;6312290;22;20049;-76
2021/09/03 00:49:00;;;;;;;9.98;4.00;;;12.20;89.70;;;;;;6313704;22;20326;-78
2021/09/03 00:51:34;;;;;;;8.73;3.70;;;12.20;89.70;;;;;;6313760;22;20337;-76
2021/09/03 00:54:01;;;;;;;8.70;4.28;;;12.20;89.90;;;;;;6314519;22;20019;-77
2021/09/03 00:56:29;;;;;;;7.88;3.88;;;12.20;89.70;;;;;;6314130;22;20224;-77
2021/09/03 00:58:57;;;;;;;9.57;4.03;;;12.20;89.40;;;;;;6315306;22;20295;-76
2021/09/03 01:01:26;;;;;;;9.82;3.47;;;12.20;89.40;;;;;;6310585;22;20027;-76
2021/09/03 01:03:53;;;;;;;9.23;4.22;;;12.10;89.60;;;;;;6314481;22;20022;-75
2021/09/03 01:06:21;;;;;;;8.27;3.58;;;12.10;89.60;;;;;;6314963;22;20027;-75
2021/09/03 01:08:48;;;;;;;6.88;3.50;;;12.10;89.60;;;;;;6314586;22;20030;-77
2021/09/03 01:11:17;;;;;;;7.63;3.15;;;11.90;89.70;;;;;;6316063;22;20068;-77
2021/09/03 01:13:44;;;;;;;8.50;2.97;;;12.00;89.60;;;;;;6316171;22;20054;-76
2021/09/03 01:16:12;;;;;;;9.40;4.00;;;11.90;89.60;;;;;;6314920;22;20023;-76
2021/09/03 01:18:41;;;;;;;9.07;3.90;;;11.90;89.70;;;;;;6285376;22;20015;-76
2021/09/03 01:21:22;;;;;;;7.93;3.58;;;11.90;89.70;;;;;;3398346;22;10002478;-77
2021/09/03 01:23:51;;;;;;;8.43;3.72;;;11.90;89.60;;;;;;4998952;22;10001183;-76
2021/09/03 01:26:18;;;;;;;8.20;4.22;;;11.90;89.60;;;;;;6316054;22;20046;-77
2021/09/03 01:28:48;;;;;;;9.82;3.88;;;11.90;89.70;;;;;;6315349;22;20050;-77
2021/09/03 01:31:17;;;;;;;9.27;3.72;;;11.90;89.70;;;;;;6314845;22;20316;-77
2021/09/03 01:33:44;;;;;;;9.20;3.95;;;11.90;89.70;;;;;;6315338;22;20019;-75
2021/09/03 01:36:12;;;;;;;10.15;4.20;;;11.90;89.60;;;;;;6315414;22;20075;-76
2021/09/03 01:38:39;;;;;;;8.38;3.80;;;11.80;89.70;;;;;;6313125;22;20311;-76
2021/09/03 01:41:08;;;;;;;8.77;3.60;;;11.80;89.80;;;;;;6314981;22;20027;-76
2021/09/03 01:43:35;;;;;;;9.82;4.00;;;11.70;89.80;;;;;;6315556;22;20322;-76
2021/09/03 01:46:07;;;;;;;9.50;3.38;;;11.70;89.80;;;;;;6315601;22;20015;-77
2021/09/03 01:48:35;;;;;;;7.65;3.72;;;11.70;89.80;;;;;;6315346;22;20028;-77
2021/09/03 01:51:05;;;;;;;8.77;3.97;;;11.70;89.90;;;;;;6316066;22;20027;-77
2021/09/03 01:53:32;;;;;;;9.20;3.45;;;11.70;89.80;;;;;;6288459;22;20019;-77
2021/09/03 01:56:00;;;;;;;11.98;4.63;;;11.60;90.00;;;;;;6315999;22;20023;-76
2021/09/03 01:58:31;;;;;;;7.72;3.67;;;11.60;90.20;;;;;;6314407;22;20061;-77
2021/09/03 02:01:01;;;;;;;8.70;4.07;;;11.50;90.40;;;;;;6309635;22;20015;-76
2021/09/03 02:03:28;;;;;;;8.48;3.97;;;11.50;90.50;;;;;;6315546;22;20249;-76
2021/09/03 02:05:58;;;;;;;9.15;3.53;;;11.60;90.30;;;;;;6316525;22;20196;-77
2021/09/03 02:08:28;;;;;;;9.52;3.90;;;11.60;90.40;;;;;;6287675;22;20027;-76
2021/09/03 02:10:55;;;;;;;6.82;3.65;;;11.60;90.40;;;;;;6315706;22;20079;-77
2021/09/03 02:13:22;;;;;;;9.43;3.65;;;11.60;90.50;;;;;;6315700;22;20019;-77
2021/09/03 02:15:51;;;;;;;7.97;4.10;;;11.50;90.50;;;;;;6289414;22;20334;-77
2021/09/03 02:18:22;;;;;;;9.82;3.80;;;11.60;90.60;;;;;;6313814;22;20098;-77
2021/09/03 02:20:49;;;;;;;10.65;3.78;;;11.70;90.60;;;;;;6315535;22;20060;-76
2021/09/03 02:23:17;;;;;;;8.18;3.83;;;11.60;90.60;;;;;;6288908;22;20038;-77
2021/09/03 02:25:45;;;;;;;9.07;4.28;;;11.70;90.60;;;;;;6288563;22;20039;-77
2021/09/03 02:28:15;;;;;;;6.53;3.28;;;11.60;90.60;;;;;;6316292;22;20019;-77
2021/09/03 02:30:44;;;;;;;11.68;4.93;;;11.60;90.60;;;;;;6315780;22;20327;-77
2021/09/03 02:33:13;;;;;;;8.25;3.92;;;11.70;90.70;;;;;;6314454;22;20015;-77
2021/09/03 02:35:42;;;;;;;11.32;3.83;;;11.60;90.70;;;;;;6315758;22;20027;-77
2021/09/03 02:38:10;;;;;;;12.60;4.45;;;11.60;90.70;;;;;;6317056;22;20021;-75
2021/09/03 02:40:40;;;;;;;8.55;4.30;;;11.60;90.60;;;;;;6316301;22;20030;-76
2021/09/03 02:43:07;;;;;;;12.20;3.83;;;11.60;90.70;;;;;;6316869;22;20347;-76
2021/09/03 02:45:35;;;;;;;10.07;4.63;;;11.60;90.90;;;;;;6317459;22;20027;-77
2021/09/03 02:48:03;;;;;;;9.68;4.00;;;11.60;90.90;;;;;;6317410;22;20022;-77
2021/09/03 02:50:32;;;;;;;8.90;3.55;;;11.60;90.90;;;;;;6317314;22;20022;-76
2021/09/03 02:52:59;;;;;;;8.52;4.28;;;11.60;90.90;;;;;;6318041;22;20354;-77
2021/09/03 02:55:27;;;;;;;14.55;4.28;;;11.60;90.80;;;;;;6316916;22;20218;-76
2021/09/03 02:57:55;;;;;;;8.70;4.03;;;11.60;90.80;;;;;;6317223;22;20294;-76
2021/09/03 03:00:28;;;;;;;11.48;3.90;;;11.60;90.60;;;;;;6283676;22;20019;-76
2021/09/03 03:02:58;;;;;;;13.43;4.20;;;11.50;90.50;;;;;;6317640;22;20015;-76
2021/09/03 03:05:25;;;;;;;8.63;3.83;;;11.50;90.60;;;;;;6317085;22;20023;-77
2021/09/03 03:07:54;;;;;;;7.47;4.00;;;11.50;90.60;;;;;;6317927;22;20015;-76
2021/09/03 03:10:21;;;;;;;7.25;3.83;;;11.50;90.50;;;;;;6317685;22;20023;-77
2021/09/03 03:12:54;;;;;;;8.93;4.20;;;11.50;90.60;;;;;;6322157;22;20072;-77
2021/09/03 03:15:22;;;;;;;8.50;3.80;;;11.40;90.40;;;;;;6316691;22;20027;-76
2021/09/03 03:17:49;;;;;;;8.85;3.80;;;11.40;90.40;;;;;;6316633;22;20037;-76
2021/09/03 03:20:17;;;;;;;9.35;3.95;;;11.40;90.40;;;;;;6317090;22;20372;-76
2021/09/03 03:22:47;;;;;;;;;;;11.30;90.40;;;;;;6289806;22;20023;-76
2021/09/03 03:25:16;;;;;;;8.75;3.75;;;11.30;90.40;;;;;;6316861;22;19952;-76
2021/09/03 03:27:44;;;;;;;10.05;3.88;;;11.30;90.40;;;;;;6316339;22;20023;-77
2021/09/03 03:30:12;;;;;;;7.05;3.42;;;11.30;90.20;;;;;;6317693;22;20038;-77
2021/09/03 03:32:40;;;;;;;8.30;3.47;;;11.30;90.20;;;;;;6316149;22;20052;-77
2021/09/03 03:35:08;;;;;;;7.43;3.28;;;11.30;90.10;;;;;;6316666;22;20015;-75
2021/09/03 03:37:36;;;;;;;9.30;3.65;;;11.20;90.30;;;;;;6315899;22;20247;-76
2021/09/03 03:40:04;;;;;;;8.57;3.72;;;11.20;90.40;;;;;;6315493;22;20022;-75
2021/09/03 03:42:34;;;;;;;8.55;3.53;;;11.10;90.40;;;;;;6287267;22;20318;-77
2021/09/03 03:45:05;;;;;;;8.25;3.40;;;11.10;90.40;;;;;;6314868;22;20015;-77
2021/09/03 03:47:32;;;;;;;7.80;3.63;;;11.10;90.40;;;;;;6314113;22;20019;-77
2021/09/03 03:50:00;;;;;;;7.25;3.67;;;11.10;90.40;;;;;;6315553;22;20022;-77
2021/09/03 03:52:31;;;;;;;8.75;4.15;;;11.10;90.40;;;;;;6314880;22;20027;-76
2021/09/03 03:54:58;;;;;;;11.40;3.67;;;11.10;90.40;;;;;;6314240;22;20023;-76
2021/09/03 03:57:28;;;;;;;6.70;3.25;;;11.00;90.40;;;;;;6287702;22;20080;-76
2021/09/03 03:59:57;;;;;;;8.68;3.67;;;11.00;90.40;;;;;;6314918;22;20015;-77
2021/09/03 04:02:24;;;;;;;12.50;4.30;;;11.00;90.60;;;;;;6309888;22;20227;-77
2021/09/03 04:04:52;;;;;;;8.10;3.42;;;11.00;90.80;;;;;;6314790;22;20272;-78
2021/09/03 04:07:19;;;;;;;10.63;3.72;;;10.90;90.80;;;;;;6314302;22;20023;-77
2021/09/03 04:09:47;;;;;;;8.52;3.88;;;10.90;90.90;;;;;;6315081;22;20319;-76
2021/09/03 04:12:14;;;;;;;7.82;3.95;;;10.90;91.00;;;;;;6315056;22;20016;-77
2021/09/03 04:14:45;;;;;;;6.30;3.67;;;10.90;90.80;;;;;;6315121;22;20330;-77
2021/09/03 04:17:14;;;;;;;11.52;4.22;;;10.90;90.90;;;;;;6289207;22;20014;-76
2021/09/03 04:19:42;;;;;;;7.97;4.18;;;10.90;91.00;;;;;;6316827;22;20027;-76
2021/09/03 04:22:09;;;;;;;7.82;3.58;;;10.90;91.10;;;;;;6289636;22;20222;-76
2021/09/03 04:24:36;;;;;;;10.93;4.38;;;10.90;91.10;;;;;;6316099;22;20034;-77
2021/09/03 04:27:05;;;;;;;7.90;4.10;;;11.00;91.30;;;;;;6317089;22;20027;-76
2021/09/03 04:29:32;;;;;;;7.78;4.25;;;11.00;91.20;;;;;;6315975;22;20251;-76
2021/09/03 04:31:59;;;;;;;7.68;3.97;;;11.00;91.20;;;;;;6316718;22;20015;-77
2021/09/03 04:34:28;;;;;;;8.60;3.90;;;11.00;91.00;;;;;;6315759;22;20334;-76
2021/09/03 04:36:56;;;;;;;8.48;3.55;;;10.90;91.10;;;;;;6316732;22;20019;-77
2021/09/03 04:39:23;;;;;;;11.38;4.28;;;11.00;91.10;;;;;;6314214;22;20114;-77
2021/09/03 04:41:51;;;;;;;7.93;3.78;;;11.00;91.00;;;;;;6316483;22;20065;-78
2021/09/03 04:44:18;;;;;;;9.30;4.20;;;11.00;90.90;;;;;;6315163;22;20345;-76
2021/09/03 04:46:46;;;;;;;11.73;4.53;;;11.00;91.00;;;;;;6316761;22;20076;-76
2021/09/03 04:49:13;;;;;;;9.60;4.28;;;11.00;90.90;;;;;;6316198;22;20090;-77
2021/09/03 04:51:42;;;;;;;9.15;4.07;;;11.10;90.90;;;;;;6314416;22;20016;-76
2021/09/03 04:54:12;;;;;;;12.65;4.40;;;11.00;90.90;;;;;;6316619;22;20023;-76
2021/09/03 04:56:42;;;;;;;7.70;4.03;;;11.10;90.90;;;;;;6315661;22;20041;-77
2021/09/03 04:59:09;;;;;;;9.65;4.07;;;11.00;91.00;;;;;;6316039;22;20015;-76
2021/09/03 05:01:37;;;;;;;8.20;3.60;;;11.00;91.20;;;;;;6311099;22;20022;-77
2021/09/03 05:04:05;;;;;;;12.65;4.38;;;11.00;91.40;;;;;;6316059;22;20034;-77
2021/09/03 05:06:33;;;;;;;10.25;4.35;;;11.00;91.60;;;;;;6316503;22;20019;-76
2021/09/03 05:09:01;;;;;;;10.40;4.70;;;11.00;91.70;;;;;;6316907;22;20030;-77
2021/09/03 05:11:29;;;;;;;9.68;4.25;;;11.10;91.80;;;;;;6316351;22;20034;-76
2021/09/03 05:13:56;;;;;;;11.50;4.47;;;11.10;91.80;;;;;;6316202;22;20057;-77
2021/09/03 05:16:24;;;;;;;11.13;4.05;;;11.10;91.60;;;;;;6287408;22;20034;-77
2021/09/03 05:18:54;;;;;;;11.85;4.65;;;11.10;91.60;;;;;;6310683;22;20102;-76
2021/09/03 05:21:23;;;;;;;9.98;4.43;;;11.10;91.70;;;;;;6286498;22;20302;-77
2021/09/03 05:23:51;;;;;;;9.10;4.50;;;11.20;91.60;;;;;;6313716;22;20023;-76
2021/09/03 05:26:21;;;;;;;10.75;5.65;;;11.30;91.40;;;;;;6313422;22;20037;-77
2021/09/03 05:28:49;;;;;;;;;;;11.30;91.20;;;;;;6314580;22;20019;-77
2021/09/03 05:31:18;;;;;;;8.27;3.55;;;11.40;91.20;;;;;;6314139;22;19911;-77
2021/09/03 05:33:45;;;;;;;8.37;4.13;;;11.40;91.10;;;;;;6287006;22;20336;-77
2021/09/03 05:36:13;;;;;;;7.93;3.55;;;11.40;91.10;;;;;;6316200;22;20015;-77
2021/09/03 05:38:43;;;;;;;9.68;4.38;;;11.50;90.90;;;;;;6315061;22;20257;-77
2021/09/03 05:41:11;;;;;;;;;;;11.50;90.90;;;;;;6316267;22;20216;-76
2021/09/03 05:43:39;;;;;;;8.05;3.38;;;11.60;90.90;;;;;;6287915;22;19980;-77
2021/09/03 05:46:07;;;;;;;20.17;5.18;;;11.70;90.70;;;;;;6315595;22;20015;-77
2021/09/03 05:48:34;;;;;;;8.73;3.88;;;11.70;90.60;;;;;;6314853;22;20042;-77
2021/09/03 05:51:04;;;;;;;;;;;11.70;90.60;;;;;;6316857;22;20025;-77
2021/09/03 05:53:33;;;;;;;7.03;3.17;;;11.70;90.60;;;;;;6314670;22;20174;-76
2021/09/03 05:56:00;;;;;;;9.98;4.38;;;11.80;90.70;;;;;;6314801;22;20023;-77
2021/09/03 05:58:32;;;;;;;9.05;4.25;;;11.80;90.70;;;;;;6317272;22;20068;-77
2021/09/03 06:01:01;;;;;;;9.90;4.40;;;11.90;90.60;;;;;;6286050;22;20023;-79
2021/09/03 06:03:29;;;;;;;11.67;3.97;;;11.90;90.40;;;;;;6316708;22;20349;-77
2021/09/03 06:05:57;;;;;;;9.55;4.03;;;12.00;90.20;;;;;;6318276;22;20064;-78
2021/09/03 06:08:25;;;;;;;8.77;4.20;;;12.10;90.10;;;;;;6317445;22;20074;-77
2021/09/03 06:10:53;;;;;;;9.77;4.15;;;12.20;89.60;;;;;;6318248;22;20065;-77
2021/09/03 06:13:20;;;;;;;8.07;3.50;;;12.20;89.60;;;;;;6316329;22;20240;-77
2021/09/03 06:15:48;;;;;;;8.10;3.47;;;12.30;89.40;;;;;;6317587;22;20023;-77
2021/09/03 06:18:16;;;;;;;9.68;4.40;;;12.40;89.30;;;;;;6317595;22;20074;-77
2021/09/03 06:20:44;;;;;;;10.00;4.05;;;12.40;89.50;;;;;;6317272;22;20021;-77
2021/09/03 06:23:12;;;;;;;12.05;4.70;;;12.50;89.50;;;;;;6317302;22;20030;-77
2021/09/03 06:25:40;;;;;;;9.00;4.55;;;12.50;89.40;;;;;;6313893;22;20278;-76
2021/09/03 06:28:07;;;;;;;11.73;4.47;;;12.60;89.40;;;;;;6316912;22;20015;-77
2021/09/03 06:30:35;;;;;;;8.30;4.20;;;12.70;89.30;;;;;;6314574;22;20033;-77
2021/09/03 06:33:02;;;;;;;10.82;4.72;;;12.70;89.10;;;;;;6289975;22;20222;-77
2021/09/03 06:35:33;;;;;;;8.82;4.10;;;12.90;89.00;;;;;;6314732;22;20019;-77
2021/09/03 06:38:01;;;;;;;14.15;4.78;;;12.90;89.00;;;;;;6313961;22;20095;-77
2021/09/03 06:40:29;;;;;;;8.95;4.55;;;13.10;88.60;;;;;;6314666;22;20377;-77
2021/09/03 06:42:57;;;;;;;9.18;4.57;;;13.10;88.60;;;;;;6317442;22;20070;-77
2021/09/03 06:45:24;;;;;;;10.02;4.40;;;13.20;88.60;;;;;;6323220;22;20019;-77
2021/09/03 06:47:54;;;;;;;8.60;3.78;;;13.30;88.40;;;;;;6319158;22;20019;-76
2021/09/03 06:50:22;;;;;;;8.13;4.25;;;13.40;88.10;;;;;;6316339;22;20019;-76
2021/09/03 06:52:51;;;;;;;8.68;3.95;;;13.50;87.90;;;;;;6316989;22;20023;-76
2021/09/03 06:55:19;;;;;;;11.73;4.80;;;13.60;87.60;;;;;;6316021;22;20384;-76
2021/09/03 06:57:47;;;;;;;7.97;3.67;;;13.70;87.50;;;;;;6316001;22;20082;-77
2021/09/03 07:00:15;;;;;;;8.60;3.88;;;13.80;87.40;;;;;;6309919;22;20042;-78
2021/09/03 07:02:45;;;;;;;10.60;4.30;;;13.90;87.50;;;;;;6314387;22;20034;-75
2021/09/03 07:05:12;;;;;;;13.88;4.53;;;14.00;87.40;;;;;;6315076;22;20023;-76
2021/09/03 07:07:40;;;;;;;11.82;5.40;;;14.10;87.10;;;;;;6312995;22;20079;-77
2021/09/03 07:10:10;;;;;;;8.15;3.88;;;14.20;87.00;;;;;;6315818;22;20057;-76
2021/09/03 07:12:37;;;;;;;9.80;4.30;;;14.40;86.70;;;;;;6315852;22;20019;-76
2021/09/03 07:15:06;;;;;;;9.18;4.07;;;14.40;87.00;;;;;;6314363;22;20060;-77
2021/09/03 07:17:33;;;;;;;8.90;4.30;;;14.60;86.80;;;;;;6314177;22;20065;-76
2021/09/03 07:20:01;;;;;;;9.55;5.22;;;14.70;86.60;;;;;;6312307;22;20049;-76
2021/09/03 07:22:32;;;;;;;9.05;4.25;;;14.80;86.30;;;;;;6287433;22;20070;-74
2021/09/03 07:25:01;;;;;;;10.10;5.38;;;15.00;86.00;;;;;;6315671;22;20318;-77
2021/09/03 07:27:33;;;;;;;7.40;3.70;;;15.20;85.30;;;;;;6315513;22;20019;-77
2021/09/03 07:30:00;;;;;;;10.07;4.18;;;15.40;84.60;;;;;;6287404;22;20023;-74
2021/09/03 07:32:28;;;;;;;8.25;3.92;;;15.60;84.30;;;;;;6287215;22;20027;-75
2021/09/03 07:34:55;;;;;;;8.05;3.45;;;15.70;83.90;;;;;;6316302;22;20015;-77
2021/09/03 07:37:23;;;;;;;9.63;4.13;;;15.80;83.90;;;;;;6314211;22;20019;-77
2021/09/03 07:39:52;;;;;;;6.97;3.78;;;16.00;83.20;;;;;;6316615;22;20022;-75
2021/09/03 07:42:23;;;;;;;9.87;3.67;;;16.10;83.30;;;;;;6316663;22;20318;-77
2021/09/03 07:44:51;;;;;;;8.48;3.45;;;16.20;82.80;;;;;;6316890;22;20012;-76
2021/09/03 07:47:19;;;;;;;7.68;3.72;;;16.40;82.30;;;;;;6316622;22;20253;-77
2021/09/03 07:49:49;;;;;;;9.13;4.05;;;16.60;81.90;;;;;;6316640;22;20033;-77
2021/09/03 07:52:17;;;;;;;7.57;3.38;;;16.70;81.20;;;;;;6317041;22;20019;-77
2021/09/03 07:54:46;;;;;;;7.40;3.50;;;16.90;80.20;;;;;;6316808;22;20033;-76
2021/09/03 07:57:14;;;;;;;8.15;3.55;;;17.10;79.90;;;;;;6316247;22;20022;-77
2021/09/03 07:59:42;;;;;;;9.23;3.70;;;17.20;79.20;;;;;;6287777;22;20019;-77
2021/09/03 08:02:15;;;;;;;7.25;3.88;;;17.30;79.30;;;;;;6309991;22;20030;-76
2021/09/03 08:04:51;;;;;;;11.18;3.40;;;17.40;79.30;;;;;;6313771;22;20056;-77
2021/09/03 08:07:19;;;;;;;8.48;3.50;;;17.50;78.60;;;;;;6315934;22;20293;-76
2021/09/03 08:09:46;;;;;;;7.22;3.78;;;17.50;78.80;;;;;;6316375;22;20027;-75
2021/09/03 08:12:14;;;;;;;8.55;3.45;;;17.60;78.90;;;;;;6316182;22;20011;-75
2021/09/03 08:14:41;;;;;;;7.40;3.53;;;17.60;78.90;;;;;;6316100;22;20291;-76
2021/09/03 08:17:10;;;;;;;5.65;2.80;;;17.80;78.30;;;;;;6315769;22;20052;-75
2021/09/03 08:19:38;;;;;;;7.38;3.85;;;17.90;77.50;;;;;;6316573;22;20041;-76
2021/09/03 08:22:06;;;;;;;9.48;3.38;;;18.10;77.90;;;;;;6313319;22;20057;-76
2021/09/03 08:24:34;;;;;;;9.02;3.40;;;18.20;77.50;;;;;;6313341;22;20323;-77
2021/09/03 08:27:04;;;;;;;10.43;3.70;;;18.40;77.40;;;;;;6313627;22;20083;-76
2021/09/03 08:29:32;;;;;;;7.88;3.80;;;18.60;76.40;;;;;;6314523;22;20019;-75
2021/09/03 08:32:00;;;;;;;8.05;3.08;;;18.60;76.40;;;;;;6315497;22;20037;-75
2021/09/03 08:34:31;;;;;;;6.57;3.40;;;18.80;75.90;;;;;;6314787;22;20015;-76
2021/09/03 08:36:58;;;;;;;6.68;3.05;;;18.90;75.80;;;;;;6315333;22;20073;-76
2021/09/03 08:39:25;;;;;;;7.90;3.58;;;19.00;75.00;;;;;;6313765;22;20049;-76
2021/09/03 08:41:54;;;;;;;8.13;3.00;;;19.10;74.20;;;;;;6315123;22;20027;-76
2021/09/03 08:44:21;;;;;;;6.28;3.20;;;19.20;73.90;;;;;;6312515;22;20079;-76
2021/09/03 08:46:49;;;;;;;8.98;3.10;;;19.40;74.00;;;;;;6313763;22;20023;-76
2021/09/03 08:49:16;;;;;;;5.68;2.97;;;19.50;73.30;;;;;;6314127;22;20031;-76
2021/09/03 08:51:45;;;;;;;6.68;3.42;;;19.60;72.30;;;;;;6286144;22;20071;-76
2021/09/03 08:54:15;;;;;;;6.07;3.13;;;19.60;72.40;;;;;;6286840;22;20021;-76
2021/09/03 08:56:42;;;;;;;6.07;2.78;;;19.80;72.50;;;;;;6285807;22;20027;-76
2021/09/03 08:59:10;;;;;;;9.93;3.55;;;20.00;69.90;;;;;;6313945;22;20071;-75
2021/09/03 09:01:37;;;;;;;9.02;3.38;;;20.30;70.20;;;;;;6282167;22;20031;-76
2021/09/03 09:04:13;;;;;;;7.35;4.50;;;20.50;69.80;;;;;;6313677;22;20022;-76
2021/09/03 09:06:43;;;;;;;7.40;3.08;;;20.60;69.50;;;;;;6313982;22;20015;-76
2021/09/03 09:09:12;;;;;;;7.78;3.47;;;20.60;68.30;;;;;;6314157;22;20030;-76
2021/09/03 09:11:40;;;;;;;10.35;2.78;;;20.80;67.50;;;;;;6313013;22;20015;-76
2021/09/03 09:14:09;;;;;;;6.78;2.92;;;21.00;68.10;;;;;;6314384;22;20018;-74
2021/09/03 09:16:37;;;;;;;7.50;2.88;;;21.10;67.30;;;;;;6313551;22;20042;-75
2021/09/03 09:19:07;;;;;;;8.60;3.08;;;21.10;67.00;;;;;;6288377;22;20016;-75
2021/09/03 09:21:36;;;;;;;7.07;3.03;;;21.10;67.40;;;;;;6312495;22;20026;-75
2021/09/03 09:24:06;;;;;;;6.18;2.75;;;21.30;67.40;;;;;;6315440;22;20322;-75
2021/09/03 09:26:45;;;;;;;6.57;2.65;;;21.60;66.20;;;;;;6314010;22;20056;-75
2021/09/03 09:29:17;;;;;;;6.57;3.38;;;21.90;64.80;;;;;;6315871;22;20015;-74
2021/09/03 09:31:45;;;;;;;6.97;3.10;;;22.10;63.90;;;;;;6314903;22;20023;-75
2021/09/03 09:34:17;;;;;;;5.18;2.65;;;22.30;61.50;;;;;;6315995;22;20035;-76
2021/09/03 09:36:45;;;;;;;6.18;2.80;;;22.50;61.00;;;;;;6315509;22;20027;-74
2021/09/03 09:39:15;;;;;;;5.43;2.50;;;22.70;61.30;;;;;;6316070;22;20015;-75
2021/09/03 09:41:46;;;;;;;5.75;2.80;;;22.90;60.00;;;;;;6315352;22;20015;-75
2021/09/03 09:44:13;;;;;;;5.28;2.35;;;23.20;60.20;;;;;;6315173;22;20049;-74
2021/09/03 09:46:41;;;;;;;6.93;2.60;;;23.40;58.10;;;;;;6314771;22;20023;-75
2021/09/03 09:49:13;;;;;;;5.70;2.83;;;23.90;58.60;;;;;;6315625;22;20019;-76
2021/09/03 09:51:51;;;;;;;6.05;2.40;;;24.10;57.20;;;;;;6314931;22;20015;-76
2021/09/03 09:54:21;;;;;;;4.15;2.42;;;24.10;55.80;;;;;;6316048;22;20019;-76
2021/09/03 09:56:52;;;;;;;8.07;2.72;;;24.10;56.50;;;;;;6288349;22;20042;-76
2021/09/03 09:59:21;;;;;;;6.43;2.60;;;23.90;54.90;;;;;;6288102;22;20083;-76
2021/09/03 10:01:49;;;;;;;7.18;3.25;;;23.80;56.30;;;;;;6310632;22;20214;-76
2021/09/03 10:04:18;;;;;;;8.27;2.70;;;24.20;55.20;;;;;;6288520;22;20015;-76
2021/09/03 10:06:51;;;;;;;5.53;2.40;;;24.60;54.40;;;;;;6314642;22;20076;-76
2021/09/03 10:09:22;;;;;;;5.43;2.63;;;25.10;52.60;;;;;;6314964;22;20441;-76
2021/09/03 10:11:53;;;;;;;9.27;2.85;;;25.60;50.80;;;;;;6288561;22;20349;-76
2021/09/03 10:14:22;;;;;;;5.65;2.50;;;26.50;49.90;;;;;;6313969;22;20249;-76
2021/09/03 10:16:50;;;;;;;5.43;2.72;;;27.00;44.50;;;;;;6314017;22;20407;-76
2021/09/03 10:19:23;;;;;;;4.47;2.17;;;27.60;41.80;;;;;;6287216;22;20250;-76
2021/09/03 10:21:50;;;;;;;7.18;3.15;;;29.20;40.30;;;;;;6318270;22;20318;-76
2021/09/03 10:24:22;;;;;;;5.55;2.42;;;30.00;37.10;;;;;;6322867;22;20019;-76
2021/09/03 10:26:54;;;;;;;5.75;2.15;;;30.60;35.90;;;;;;6316256;22;20253;-75
2021/09/03 10:29:26;;;;;;;4.63;2.25;;;31.00;35.30;;;;;;6314147;22;20065;-75
2021/09/03 10:32:23;;;;;;;4.10;2.03;;;32.80;33.50;;;;;;6314340;22;20023;-77
2021/09/03 10:34:54;;;;;;;4.50;2.00;;;32.20;31.90;;;;;;6314884;22;20061;-75
2021/09/03 10:37:28;;;;;;;4.65;2.58;;;32.00;32.50;;;;;;6314596;22;20326;-76
2021/09/03 10:40:02;;;;;;;5.40;2.97;;;32.90;31.90;;;;;;6314589;22;20022;-74
2021/09/03 10:42:58;;;;;;;4.03;2.10;;;33.80;30.40;;;;;;6287491;22;20016;-74
2021/09/03 10:45:35;;;;;;;5.30;2.47;;;33.70;30.70;;;;;;6282515;22;20110;-74
2021/09/03 10:48:10;;;;;;;6.93;2.50;;;34.90;30.70;;;;;;6283898;22;20061;-76
2021/09/03 10:50:42;;;;;;;5.20;2.28;;;35.20;29.00;;;;;;6256012;22;20046;-75
2021/09/03 10:53:20;;;;;;;5.28;2.30;;;35.80;28.20;;;;;;6283928;22;20346;-77
2021/09/03 10:56:01;;;;;;;5.28;2.20;;;36.10;26.70;;;;;;6238177;23;20043;-75
2021/09/03 10:58:45;;;;;;;3.95;2.17;;;35.60;26.60;;;;;;6267740;22;20019;-74
2021/09/03 11:01:51;;;;;;;3.55;1.65;;;34.30;27.10;;;;;;6280430;22;20022;-74
2021/09/03 11:04:23;;;;;;;5.22;2.40;;;33.90;28.30;;;;;;6257320;22;20045;-74
2021/09/03 11:07:08;;;;;;;3.83;1.67;;;34.00;29.20;;;;;;6258196;22;20015;-75
2021/09/03 11:09:39;;;;;;;4.97;2.15;;;35.70;26.20;;;;;;6259319;22;20062;-75
2021/09/03 11:12:09;;;;;;;4.35;2.17;;;36.20;25.80;;;;;;6285930;22;20022;-74
2021/09/03 11:14:39;;;;;;;4.07;2.00;;;36.20;25.60;;;;;;6257138;22;20346;-75
2021/09/03 11:17:08;;;;;;;4.85;2.28;;;36.50;25.70;;;;;;6286159;22;20030;-76
2021/09/03 11:19:38;;;;;;;4.25;2.20;;;36.40;25.90;;;;;;6284534;22;20019;-75
2021/09/03 11:22:09;;;;;;;4.25;1.88;;;37.30;24.50;;;;;;6285825;22;20023;-76
2021/09/03 11:24:40;;;;;;;4.10;2.08;;;36.60;24.30;;;;;;6284805;22;20028;-75
2021/09/03 11:27:08;;;;;;;4.00;1.80;;;36.10;23.80;;;;;;6285732;22;20011;-74
2021/09/03 11:29:43;;;;;;;;;;;37.00;24.40;;;;;;6284687;22;20258;-74
2021/09/03 11:32:13;;;;;;;5.85;2.17;;;38.10;22.50;;;;;;6286112;22;19985;-74
2021/09/03 11:34:53;;;;;;;4.03;2.03;;;35.50;24.70;;;;;;6285283;22;20024;-75
2021/09/03 11:37:27;;;;;;;5.10;2.15;;;36.20;24.40;;;;;;6284514;22;20031;-75
2021/09/03 11:39:56;;;;;;;4.75;1.92;;;35.50;24.50;;;;;;6286047;22;20015;-75
2021/09/03 11:42:26;;;;;;;4.63;2.22;;;34.40;25.80;;;;;;6258568;22;20026;-75
2021/09/03 11:45:01;;;;;;;3.83;2.10;;;35.10;25.40;;;;;;6310688;22;20023;-76
2021/09/03 11:47:35;;;;;;;4.22;2.03;;;36.40;24.50;;;;;;6315364;22;20019;-74
2021/09/03 11:50:05;;;;;;;5.70;1.85;;;36.60;23.90;;;;;;6316286;22;20219;-74
2021/09/03 11:52:33;;;;;;;4.60;2.45;;;36.30;24.10;;;;;;6318644;22;20241;-75
2021/09/03 11:55:05;;;;;;;4.38;2.00;;;37.10;23.70;;;;;;6289162;22;20022;-75
2021/09/03 11:57:50;;;;;;;4.13;2.10;;;38.70;21.40;;;;;;6315627;22;20027;-75
2021/09/03 12:00:24;;;;;;;4.50;1.80;;;37.70;21.80;;;;;;6310027;22;20057;-75
2021/09/03 12:02:52;;;;;;;5.25;2.38;;;37.40;24.10;;;;;;6313917;22;20019;-74
2021/09/03 12:05:20;;;;;;;3.55;1.73;;;38.60;22.60;;;;;;6287168;22;20323;-74
2021/09/03 12:08:14;;;;;;;4.03;2.10;;;40.20;20.90;;;;;;6314687;22;20026;-74
2021/09/03 12:10:55;;;;;;;3.58;1.70;;;41.00;19.90;;;;;;6314304;22;20037;-74
2021/09/03 12:13:25;;;;;;;4.57;1.90;;;40.90;19.60;;;;;;6286947;22;20222;-75
2021/09/03 12:16:00;;;;;;;4.25;2.10;;;41.00;20.10;;;;;;6314655;22;20038;-73
2021/09/03 12:18:33;;;;;;;5.00;2.38;;;41.00;19.30;;;;;;6314012;22;20034;-76
2021/09/03 12:21:03;;;;;;;3.28;1.85;;;41.00;20.00;;;;;;6315495;22;20311;-73
2021/09/03 12:23:36;;;;;;;3.50;2.15;;;40.90;20.50;;;;;;6289549;22;20022;-74
2021/09/03 12:26:05;;;;;;;4.05;1.95;;;40.70;19.70;;;;;;6311580;22;20027;-74
2021/09/03 12:28:33;;;;;;;3.88;2.22;;;40.60;20.30;;;;;;6313691;22;20057;-75
2021/09/03 12:31:07;;;;;;;4.43;2.00;;;41.80;19.40;;;;;;6313152;22;20049;-75
2021/09/03 12:33:34;;;;;;;3.15;1.90;;;41.00;19.80;;;;;;6313782;22;20023;-74
2021/09/03 12:36:07;;;;;;;4.43;2.13;;;40.00;20.00;;;;;;6313676;22;20261;-73
2021/09/03 12:38:44;;;;;;;7.60;1.98;;;39.30;21.90;;;;;;6315169;22;20082;-74
2021/09/03 12:41:20;;;;;;;4.32;2.38;;;40.50;20.10;;;;;;6315350;22;20023;-75
2021/09/03 12:43:51;;;;;;;4.32;1.75;;;41.40;19.10;;;;;;6314679;22;20246;-75
2021/09/03 12:46:21;;;;;;;6.70;2.25;;;39.70;20.60;;;;;;6315721;22;20019;-75
2021/09/03 12:49:06;;;;;;;4.03;1.80;;;38.40;21.20;;;;;;6316320;22;20030;-74
2021/09/03 12:51:35;;;;;;;3.95;2.05;;;38.80;21.40;;;;;;6315470;22;20025;-75
2021/09/03 12:54:05;;;;;;;4.18;2.33;;;38.50;21.40;;;;;;6316181;22;20019;-75
2021/09/03 12:56:34;;;;;;;3.95;2.10;;;37.20;22.90;;;;;;6316754;22;20264;-75
2021/09/03 12:59:02;;;;;;;4.38;2.25;;;37.90;22.50;;;;;;6316847;22;20027;-75